Time;durP1;ratioP1;P1;durP2;ratioP2;P2;SDS_P1;SDS_P2;PMS_P1;PMS_P2;Temp;Humidity;BMP_temperature;BMP_pressure;BME280_temperature;BME280_humidity;BME280_pressure;Samples;Min_cycle;Max_cycle;Signal;HPM_P1;HPM_P2
2021/03/23 00:01:22;;;;;;;11.43;8.20;;;;;;;4.37;77.33;97490.94;5015220;28;20199;-66
2021/03/23 00:03:51;;;;;;;11.10;8.03;;;;;;;4.42;77.23;97499.00;4997550;28;20253;-67
2021/03/23 00:06:24;;;;;;;15.03;10.60;;;;;;;4.28;78.17;97497.16;4980423;28;20209;-67
2021/03/23 00:08:53;;;;;;;18.07;9.33;;;;;;;4.39;77.45;97492.41;4997209;28;20179;-66
2021/03/23 00:11:27;;;;;;;12.77;8.43;;;;;;;4.21;78.68;97497.00;4997399;28;20180;-66
2021/03/23 00:13:54;;;;;;;11.50;8.90;;;;;;;4.44;77.67;97497.06;5014848;28;20250;-67
2021/03/23 00:16:26;;;;;;;11.80;8.67;;;;;;;4.34;77.73;97491.28;5014498;28;20183;-67
2021/03/23 00:18:53;;;;;;;12.17;8.00;;;;;;;4.42;77.53;97494.63;4996903;28;20266;-67
2021/03/23 00:21:19;;;;;;;12.37;8.43;;;;;;;4.17;78.23;97498.34;5014790;28;20179;-66
2021/03/23 00:23:45;;;;;;;13.13;8.60;;;;;;;4.33;78.02;97495.66;5014971;28;20238;-66
2021/03/23 00:26:13;;;;;;;10.03;7.97;;;;;;;4.42;78.09;97499.81;5013494;28;20242;-66
2021/03/23 00:28:39;;;;;;;11.40;8.10;;;;;;;4.48;77.48;97491.34;5015149;28;20214;-66
2021/03/23 00:31:05;;;;;;;12.47;8.13;;;;;;;4.45;77.11;97496.09;5013775;28;20218;-67
2021/03/23 00:33:30;;;;;;;13.97;8.70;;;;;;;4.63;76.91;97493.22;5014224;28;20234;-66
2021/03/23 00:35:59;;;;;;;13.27;8.57;;;;;;;4.69;76.71;97490.75;5013858;28;20202;-67
2021/03/23 00:38:25;;;;;;;13.40;8.43;;;;;;;4.58;76.87;97496.31;4997136;28;20176;-66
2021/03/23 00:40:52;;;;;;;18.23;9.13;;;;;;;4.42;77.80;97497.22;5014662;28;20175;-66
2021/03/23 00:43:18;;;;;;;13.13;8.60;;;;;;;4.47;77.27;97494.13;5014590;28;20293;-66
2021/03/23 00:45:44;;;;;;;13.60;9.30;;;;;;;4.39;77.69;97497.59;5014678;28;20883;-66
2021/03/23 00:48:11;;;;;;;12.50;8.87;;;;;;;4.41;78.15;97498.19;5012512;28;20233;-66
2021/03/23 00:50:37;;;;;;;14.43;8.70;;;;;;;4.33;78.15;97495.66;5014595;28;20626;-66
2021/03/23 00:53:03;;;;;;;17.07;9.33;;;;;;;4.53;77.71;97501.22;5013419;28;20187;-66
2021/03/23 00:55:28;;;;;;;15.50;9.70;;;;;;;4.55;77.42;97497.50;5013825;28;20227;-66
2021/03/23 00:57:54;;;;;;;14.40;9.50;;;;;;;4.68;76.81;97493.53;5013845;28;20540;-66
2021/03/23 01:00:20;;;;;;;14.10;8.67;;;;;;;4.37;77.31;97494.34;5013061;28;20222;-65
2021/03/23 01:02:46;;;;;;;14.93;9.93;;;;;;;4.32;78.54;97491.44;5013949;28;20198;-65
2021/03/23 01:05:15;;;;;;;13.60;9.47;;;;;;;4.47;78.35;97486.31;5013234;28;20254;-65
2021/03/23 01:07:40;;;;;;;16.47;9.27;;;;;;;4.37;77.89;97491.75;5014126;28;20183;-65
2021/03/23 01:10:08;;;;;;;14.90;9.57;;;;;;;4.43;78.48;97491.06;5013060;28;20514;-65
2021/03/23 01:12:34;;;;;;;16.03;9.50;;;;;;;4.49;77.98;97494.75;4998835;28;20196;-66
2021/03/23 01:15:00;;;;;;;14.53;8.70;;;;;;;4.48;77.95;97490.53;5013204;28;20186;-67
2021/03/23 01:17:26;;;;;;;17.40;9.97;;;;;;;4.13;79.71;97490.06;5014074;28;20195;-66
2021/03/23 01:19:51;;;;;;;15.47;9.17;;;;;;;4.29;79.75;97493.59;5014120;28;20188;-66
2021/03/23 01:22:17;;;;;;;12.60;8.30;;;;;;;4.41;78.64;97497.38;5012945;28;20203;-68
2021/03/23 01:24:42;;;;;;;12.30;9.33;;;;;;;4.44;78.82;97492.69;5013907;28;20179;-67
2021/03/23 01:27:08;;;;;;;13.30;9.40;;;;;;;4.46;79.04;97495.09;5012860;28;20179;-67
2021/03/23 01:29:33;;;;;;;14.47;8.83;;;;;;;4.58;78.26;97497.13;4995810;28;20183;-68
2021/03/23 01:31:59;;;;;;;16.50;9.87;;;;;;;4.54;78.69;97493.28;5012685;28;20179;-68
2021/03/23 01:34:25;;;;;;;13.47;9.13;;;;;;;4.76;77.60;97486.47;4993366;28;20202;-68
2021/03/23 01:36:50;;;;;;;11.80;9.60;;;;;;;4.72;77.91;97493.00;5013246;28;20178;-67
2021/03/23 01:39:16;;;;;;;12.47;9.43;;;;;;;4.72;77.81;97492.19;5012696;28;20285;-67
2021/03/23 01:41:41;;;;;;;14.47;9.77;;;;;;;4.84;76.89;97488.22;4996096;28;20241;-67
2021/03/23 01:44:06;;;;;;;15.13;9.57;;;;;;;4.64;77.70;97494.84;4994743;28;20210;-67
2021/03/23 01:46:39;;;;;;;13.27;9.70;;;;;;;4.85;76.88;97489.81;4997302;28;20261;-67
2021/03/23 01:49:13;;;;;;;14.87;10.80;;;;;;;4.83;77.75;97484.00;5012230;28;20188;-67
2021/03/23 01:51:41;;;;;;;15.73;10.10;;;;;;;4.84;77.81;97485.63;5013570;28;20190;-67
2021/03/23 01:54:15;;;;;;;13.07;9.27;;;;;;;4.86;77.41;97489.66;5011856;28;20227;-68
2021/03/23 01:56:43;;;;;;;14.97;9.00;;;;;;;4.90;77.42;97483.13;5012933;28;20257;-67
2021/03/23 01:59:08;;;;;;;14.30;9.60;;;;;;;4.86;77.53;97481.06;5012304;28;20201;-68
2021/03/23 02:01:35;;;;;;;13.03;9.00;;;;;;;4.88;76.99;97485.09;5012705;28;20254;-68
2021/03/23 02:04:02;;;;;;;14.47;9.77;;;;;;;4.83;77.61;97484.81;5012288;28;20227;-68
2021/03/23 02:06:38;;;;;;;16.40;10.07;;;;;;;4.81;77.49;97478.16;5013000;28;20179;-68
2021/03/23 02:09:11;;;;;;;15.33;10.70;;;;;;;4.72;77.80;97482.63;5011951;28;20179;-67
2021/03/23 02:11:43;;;;;;;13.03;9.00;;;;;;;4.74;78.21;97478.03;5012825;28;20519;-68
2021/03/23 02:14:09;;;;;;;12.63;8.40;;;;;;;4.74;78.44;97477.22;5010754;28;20186;-68
2021/03/23 02:16:35;;;;;;;14.73;10.10;;;;;;;4.67;78.12;97473.72;5012868;28;20221;-66
2021/03/23 02:19:00;;;;;;;16.03;10.53;;;;;;;4.77;78.17;97482.09;5011510;28;20552;-67
2021/03/23 02:21:25;;;;;;;16.40;10.93;;;;;;;4.57;79.30;97479.13;5012799;28;20194;-66
2021/03/23 02:23:54;;;;;;;19.87;11.00;;;;;;;4.54;79.10;97479.47;4994744;28;20202;-66
2021/03/23 02:26:23;;;;;;;15.90;11.47;;;;;;;4.66;79.05;97472.94;5011844;28;20179;-67
2021/03/23 02:28:56;;;;;;;19.37;12.97;;;;;;;4.77;79.23;97474.31;4997109;28;20167;-66
2021/03/23 02:31:29;;;;;;;20.30;13.63;;;;;;;4.58;79.58;97478.97;5012356;28;20183;-66
2021/03/23 02:33:56;;;;;;;20.47;13.10;;;;;;;4.58;80.27;97476.38;5011751;28;20186;-67
2021/03/23 02:36:23;;;;;;;20.07;13.23;;;;;;;4.43;80.80;97479.88;4994364;28;20183;-66
2021/03/23 02:38:48;;;;;;;20.43;13.60;;;;;;;4.61;80.53;97480.41;5012037;28;20571;-67
2021/03/23 02:41:14;;;;;;;22.43;13.67;;;;;;;4.60;80.33;97479.63;5011406;28;20191;-67
2021/03/23 02:43:40;;;;;;;22.03;14.27;;;;;;;4.61;80.18;97472.63;5012002;28;20237;-66
2021/03/23 02:46:06;;;;;;;22.70;14.53;;;;;;;4.58;80.60;97484.16;4993945;28;20201;-66
2021/03/23 02:48:31;;;;;;;21.17;13.97;;;;;;;4.59;80.48;97482.38;5012364;28;20504;-66
2021/03/23 02:50:56;;;;;;;22.10;14.00;;;;;;;4.63;80.33;97468.06;5011631;28;20187;-67
2021/03/23 02:53:22;;;;;;;24.33;15.40;;;;;;;4.42;81.02;97476.47;5011465;28;20183;-67
2021/03/23 02:55:47;;;;;;;23.93;15.03;;;;;;;4.53;81.08;97472.66;5012236;28;20716;-67
2021/03/23 02:58:14;;;;;;;24.93;15.20;;;;;;;4.56;81.42;97464.56;4993707;28;20191;-67
2021/03/23 03:00:40;;;;;;;24.03;14.80;;;;;;;4.59;81.18;97470.19;4994694;28;20532;-66
2021/03/23 03:03:06;;;;;;;23.30;14.80;;;;;;;4.45;81.50;97467.53;4993236;28;20199;-66
2021/03/23 03:05:31;;;;;;;25.37;15.63;;;;;;;4.55;80.95;97466.34;4993356;28;20207;-67
2021/03/23 03:07:57;;;;;;;26.47;15.63;;;;;;;4.53;80.95;97470.88;5010842;28;20652;-67
2021/03/23 03:10:22;;;;;;;24.07;14.63;;;;;;;4.52;81.15;97468.44;5011178;28;20626;-66
2021/03/23 03:12:48;;;;;;;22.33;15.10;;;;;;;4.60;81.35;97463.22;5011780;28;20541;-66
2021/03/23 03:15:13;;;;;;;25.53;15.30;;;;;;;4.74;80.78;97465.06;4993101;28;20191;-67
2021/03/23 03:17:39;;;;;;;28.47;15.93;;;;;;;4.73;80.52;97463.47;5011603;28;20197;-66
2021/03/23 03:20:06;;;;;;;23.73;15.80;;;;;;;4.72;80.71;97464.44;5011053;28;20335;-66
2021/03/23 03:22:32;;;;;;;27.33;16.30;;;;;;;4.79;79.94;97462.75;5011518;28;20231;-67
2021/03/23 03:24:57;;;;;;;22.73;15.40;;;;;;;4.72;80.70;97463.63;5010681;28;20587;-67
2021/03/23 03:27:23;;;;;;;25.23;17.27;;;;;;;4.72;80.37;97467.03;4993813;28;20274;-66
2021/03/23 03:29:48;;;;;;;23.27;15.27;;;;;;;4.71;80.48;97462.81;5011464;28;20245;-66
2021/03/23 03:32:13;;;;;;;26.20;16.83;;;;;;;4.71;79.89;97464.63;5010463;28;20191;-66
2021/03/23 03:34:39;;;;;;;24.57;16.53;;;;;;;4.77;79.67;97464.72;5011549;28;20188;-66
2021/03/23 03:37:04;;;;;;;26.13;15.57;;;;;;;4.79;79.60;97467.94;5010426;28;20188;-67
2021/03/23 03:39:30;;;;;;;23.83;15.87;;;;;;;4.71;80.44;97469.81;5011429;28;20214;-66
2021/03/23 03:41:55;;;;;;;22.60;15.77;;;;;;;4.62;80.17;97463.88;5010888;28;20186;-67
2021/03/23 03:44:21;;;;;;;21.83;15.50;;;;;;;4.63;80.50;97462.88;5010903;28;20207;-66
2021/03/23 03:46:46;;;;;;;25.03;16.03;;;;;;;4.63;80.11;97462.06;5011414;28;20649;-66
2021/03/23 03:49:11;;;;;;;24.40;15.87;;;;;;;4.70;79.67;97466.41;5010484;28;20179;-66
2021/03/23 03:51:37;;;;;;;29.83;17.23;;;;;;;4.75;80.02;97460.69;5010720;28;20186;-67
2021/03/23 03:54:05;;;;;;;24.53;16.60;;;;;;;4.80;79.62;97466.16;5009434;28;20216;-67
2021/03/23 03:56:30;;;;;;;24.00;15.40;;;;;;;4.73;79.90;97465.25;5011111;28;20658;-66
2021/03/23 03:58:56;;;;;;;25.73;16.70;;;;;;;4.75;80.04;97468.47;5010826;28;20195;-67
2021/03/23 04:01:21;;;;;;;24.30;15.70;;;;;;;4.70;79.99;97466.41;5010926;28;20183;-66
2021/03/23 04:03:48;;;;;;;25.17;16.37;;;;;;;4.58;80.55;97470.38;5010947;28;20249;-66
2021/03/23 04:06:13;;;;;;;23.87;16.83;;;;;;;4.57;80.72;97472.16;5010391;28;20965;-66
2021/03/23 04:08:41;;;;;;;27.23;17.37;;;;;;;4.73;79.91;97467.84;4993457;28;20242;-66
2021/03/23 04:11:08;;;;;;;25.90;16.10;;;;;;;4.63;80.54;97470.66;5010526;28;20183;-66
2021/03/23 04:13:34;;;;;;;25.60;15.77;;;;;;;4.68;80.29;97470.94;4992059;28;20179;-66
2021/03/23 04:16:00;;;;;;;23.80;16.27;;;;;;;4.68;79.87;97475.34;4992423;28;20682;-66
2021/03/23 04:18:27;;;;;;;23.83;15.37;;;;;;;4.70;79.72;97475.97;5011254;28;20179;-66
2021/03/23 04:20:55;;;;;;;25.77;16.03;;;;;;;4.59;80.24;97483.19;5011248;28;20221;-66
2021/03/23 04:23:42;;;;;;;27.90;16.27;;;;;;;4.60;79.99;97481.41;5010178;28;20211;-66
2021/03/23 04:26:10;;;;;;;25.77;16.73;;;;;;;4.68;80.02;97489.13;5010089;28;20575;-66
2021/03/23 04:28:38;;;;;;;23.10;16.10;;;;;;;4.57;81.00;97481.72;5011346;28;20183;-66
2021/03/23 04:31:03;;;;;;;24.53;16.10;;;;;;;4.58;80.58;97483.34;5010130;28;20678;-66
2021/03/23 04:33:29;;;;;;;23.63;16.13;;;;;;;4.65;80.54;97491.25;5010223;28;20270;-66
2021/03/23 04:36:07;;;;;;;26.27;16.07;;;;;;;4.67;80.00;97487.53;5010967;28;20179;-66
2021/03/23 04:38:35;;;;;;;26.03;15.40;;;;;;;4.75;80.45;97491.84;5013881;28;20622;-66
2021/03/23 04:41:04;;;;;;;23.03;16.47;;;;;;;4.84;79.54;97496.84;5013721;28;20206;-66
2021/03/23 04:43:34;;;;;;;24.43;16.00;;;;;;;4.89;79.08;97499.72;5010935;28;20614;-66
2021/03/23 04:45:59;;;;;;;24.37;16.10;;;;;;;4.77;79.78;97495.91;5001618;28;20187;-67
2021/03/23 04:48:26;;;;;;;23.30;15.97;;;;;;;4.74;79.80;97495.41;5013996;28;20190;-66
2021/03/23 04:50:52;;;;;;;29.37;17.20;;;;;;;4.60;80.07;97508.16;5014541;28;20183;-66
2021/03/23 04:53:29;;;;;;;24.80;16.67;;;;;;;4.73;80.04;97507.63;5012690;28;20249;-66
2021/03/23 04:55:55;;;;;;;25.20;16.00;;;;;;;4.77;79.58;97501.09;5014290;28;20191;-66
2021/03/23 04:58:22;;;;;;;26.37;16.90;;;;;;;4.75;79.37;97508.22;5013217;28;20195;-66
2021/03/23 05:00:48;;;;;;;31.43;18.57;;;;;;;4.60;80.23;97505.56;5014450;28;20236;-66
2021/03/23 05:03:16;;;;;;;23.87;15.53;;;;;;;4.58;80.00;97506.72;5012908;28;20595;-66
2021/03/23 05:05:42;;;;;;;26.10;16.37;;;;;;;4.57;80.65;97508.50;5014166;28;20180;-66
2021/03/23 05:08:07;;;;;;;25.10;17.80;;;;;;;4.55;80.03;97510.47;5013064;28;20175;-66
2021/03/23 05:10:32;;;;;;;25.20;16.70;;;;;;;4.51;80.38;97511.78;5014089;28;20183;-66
2021/03/23 05:12:58;;;;;;;26.83;16.90;;;;;;;4.54;80.19;97514.03;5013399;28;20184;-67
2021/03/23 05:15:23;;;;;;;25.73;16.67;;;;;;;4.58;80.01;97522.28;5013753;28;20206;-66
2021/03/23 05:17:49;;;;;;;29.83;16.23;;;;;;;4.60;80.13;97515.97;5013507;28;20211;-66
2021/03/23 05:20:14;;;;;;;27.03;16.90;;;;;;;4.59;80.17;97510.94;5012579;28;20662;-66
2021/03/23 05:22:40;;;;;;;31.50;17.37;;;;;;;4.63;80.32;97517.38;5013397;28;20203;-66
2021/03/23 05:25:06;;;;;;;28.90;17.77;;;;;;;4.70;80.32;97520.09;4994913;28;20187;-67
2021/03/23 05:27:31;;;;;;;27.43;16.33;;;;;;;4.83;79.46;97515.16;5013282;28;20179;-67
2021/03/23 05:29:57;;;;;;;27.70;17.43;;;;;;;4.76;79.17;97514.22;5013076;28;20521;-66
2021/03/23 05:32:22;;;;;;;27.87;17.73;;;;;;;4.87;78.87;97514.66;5012480;28;20234;-66
2021/03/23 05:34:47;;;;;;;26.73;16.00;;;;;;;4.77;79.46;97513.25;4995542;28;20660;-66
2021/03/23 05:37:13;;;;;;;25.87;17.77;;;;;;;4.89;79.61;97522.28;5012478;28;20187;-66
2021/03/23 05:39:38;;;;;;;26.97;17.00;;;;;;;4.67;80.07;97516.09;5013629;28;20180;-66
2021/03/23 05:42:35;;;;;;;26.03;17.53;;;;;;;4.71;79.46;97517.34;5012423;28;20194;-67
2021/03/23 05:45:17;;;;;;;26.27;16.90;;;;;;;4.63;79.71;97527.78;4982283;28;20696;-67
2021/03/23 05:47:43;;;;;;;25.23;17.20;;;;;;;4.27;81.23;97530.06;5012385;28;20177;-66
2021/03/23 05:50:24;;;;;;;29.10;17.33;;;;;;;4.37;81.61;97522.06;5011835;28;20183;-66
2021/03/23 05:52:57;;;;;;;27.60;16.60;;;;;;;4.49;81.40;97526.72;4994929;28;20300;-66
2021/03/23 05:55:39;;;;;;;26.97;16.97;;;;;;;4.59;80.93;97524.72;5011772;28;20285;-66
2021/03/23 05:58:09;;;;;;;28.20;16.43;;;;;;;4.48;80.83;97524.28;5012136;28;20167;-66
2021/03/23 06:00:37;;;;;;;26.00;15.93;;;;;;;4.53;80.54;97522.00;4995379;28;20253;-67
2021/03/23 06:03:25;;;;;;;30.57;16.40;;;;;;;4.53;80.62;97530.59;5012241;28;20195;-67
2021/03/23 06:06:19;;;;;;;27.73;16.30;;;;;;;4.53;81.33;97537.56;4995090;28;20275;-66
2021/03/23 06:08:48;;;;;;;27.40;16.37;;;;;;;4.53;80.45;97533.19;5012502;28;20163;-67
2021/03/23 06:11:17;;;;;;;30.90;16.60;;;;;;;4.73;80.24;97540.56;5011267;28;20187;-66
2021/03/23 06:13:55;;;;;;;27.73;16.97;;;;;;;4.65;80.27;97543.19;5009806;28;20180;-66
2021/03/23 06:16:39;;;;;;;29.23;16.87;;;;;;;4.69;80.48;97547.06;4996773;28;20180;-67
2021/03/23 06:19:41;;;;;;;26.47;16.13;;;;;;;4.70;80.41;97551.25;4984321;28;20506;-66
2021/03/23 06:22:28;;;;;;;26.70;17.50;;;;;;;4.41;81.96;97554.47;4996577;28;20568;-62
2021/03/23 06:24:54;;;;;;;31.70;16.57;;;;;;;4.41;80.95;97557.06;4993095;28;20183;-68
2021/03/23 06:27:30;;;;;;;30.47;17.77;;;;;;;4.72;80.10;97551.91;4992454;28;20204;-69
2021/03/23 06:30:14;;;;;;;27.10;16.90;;;;;;;4.64;80.82;97563.13;4993197;28;20171;-70
2021/03/23 06:32:47;;;;;;;26.40;16.03;;;;;;;4.57;80.84;97562.19;4993318;28;20171;-70
2021/03/23 06:35:16;;;;;;;28.50;16.70;;;;;;;4.60;80.76;97569.66;4992301;28;20215;-70
2021/03/23 06:37:43;;;;;;;25.00;15.83;;;;;;;4.67;80.75;97575.00;4975551;28;20180;-69
2021/03/23 06:40:25;;;;;;;26.10;16.33;;;;;;;4.83;79.78;97572.31;4974741;28;20661;-70
2021/03/23 06:42:53;;;;;;;27.77;16.13;;;;;;;4.76;80.04;97569.56;4992903;28;20690;-69
2021/03/23 06:45:30;;;;;;;30.03;16.60;;;;;;;4.76;79.83;97574.78;4992065;28;20259;-70
2021/03/23 06:48:17;;;;;;;27.43;16.63;;;;;;;4.87;79.53;97571.78;4992852;28;20622;-70
2021/03/23 06:50:43;;;;;;;23.13;15.87;;;;;;;4.81;79.40;97571.66;4992872;28;20172;-71
2021/03/23 06:53:10;;;;;;;27.00;16.67;;;;;;;4.61;80.63;97586.84;4974150;28;20239;-72
2021/03/23 06:55:37;;;;;;;29.60;16.37;;;;;;;4.53;81.31;97585.09;4992840;28;20767;-69
2021/03/23 06:58:29;;;;;;;27.97;17.17;;;;;;;4.85;79.95;97578.94;4991525;28;20227;-68
2021/03/23 07:01:22;;;;;;;24.50;16.80;;;;;;;4.79;79.77;97584.81;4992589;28;20172;-71
2021/03/23 07:03:53;;;;;;;26.60;16.17;;;;;;;4.85;79.95;97578.94;4992069;28;20187;-69
2021/03/23 07:06:27;;;;;;;30.57;17.53;;;;;;;4.97;79.01;97582.75;4991606;28;20877;-69
2021/03/23 07:09:19;;;;;;;28.90;16.13;;;;;;;5.02;78.80;97587.44;4992323;28;20637;-71
2021/03/23 07:12:02;;;;;;;29.20;16.90;;;;;;;5.02;79.32;97577.03;4992573;28;20183;-69
2021/03/23 07:14:39;;;;;;;28.70;17.43;;;;;;;5.22;78.52;97587.81;4992320;28;20170;-70
2021/03/23 07:17:25;;;;;;;25.07;16.13;;;;;;;5.37;78.32;97591.28;4991586;28;20168;-69
2021/03/23 07:19:59;;;;;;;33.87;17.93;;;;;;;5.55;77.74;97586.59;4991342;28;20203;-69
2021/03/23 07:22:40;;;;;;;27.17;16.27;;;;;;;5.40;76.53;97594.34;4991459;28;20621;-70
2021/03/23 07:25:35;;;;;;;27.53;17.50;;;;;;;5.49;76.90;97602.88;5003258;28;20497;-70
2021/03/23 07:28:11;;;;;;;25.67;16.50;;;;;;;5.62;76.53;97605.72;5011243;28;20590;-69
2021/03/23 07:30:40;;;;;;;28.83;17.37;;;;;;;5.82;75.45;97608.63;5003838;28;20233;-69
2021/03/23 07:33:14;;;;;;;24.57;17.03;;;;;;;5.85;75.20;97609.06;5011799;28;20187;-70
2021/03/23 07:35:43;;;;;;;25.43;17.00;;;;;;;5.82;75.58;97608.63;5011890;28;20227;-70
2021/03/23 07:38:28;;;;;;;29.80;17.93;;;;;;;5.96;74.69;97601.88;5010637;28;20186;-70
2021/03/23 07:40:55;;;;;;;26.90;17.30;;;;;;;5.60;75.39;97602.47;5011401;28;20176;-69
2021/03/23 07:43:37;;;;;;;25.93;17.57;;;;;;;5.71;75.65;97606.44;4992396;28;20223;-70
2021/03/23 07:46:09;;;;;;;28.93;17.53;;;;;;;6.01;75.15;97605.56;5009905;28;20171;-71
2021/03/23 07:48:56;;;;;;;26.40;17.17;;;;;;;6.36;73.59;97603.22;5010880;28;20571;-70
2021/03/23 07:51:33;;;;;;;26.40;16.17;;;;;;;6.38;72.87;97612.50;5009913;28;20668;-71
2021/03/23 07:54:03;;;;;;;24.13;16.77;;;;;;;6.55;72.74;97610.50;5007841;28;20227;-70
2021/03/23 07:56:58;;;;;;;24.23;16.30;;;;;;;6.73;71.82;97610.94;5011496;28;20183;-70
2021/03/23 08:00:00;;;;;;;25.03;17.20;;;;;;;6.52;72.18;97611.66;4987076;28;20565;-70
2021/03/23 08:02:50;;;;;;;28.57;15.50;;;;;;;6.63;71.96;97615.63;5010684;28;20175;-70
2021/03/23 08:05:28;;;;;;;27.80;17.33;;;;;;;6.59;71.86;97612.56;5010506;28;20167;-70
2021/03/23 08:07:53;;;;;;;27.40;17.27;;;;;;;6.88;70.98;97619.53;5011162;28;20187;-69
2021/03/23 08:10:30;;;;;;;28.13;16.20;;;;;;;6.99;70.70;97619.06;5010534;28;20206;-69
2021/03/23 08:13:05;;;;;;;25.23;17.40;;;;;;;6.49;71.52;97619.84;5014581;28;20175;-69
2021/03/23 08:15:51;;;;;;;28.83;18.47;;;;;;;6.49;71.69;97625.06;5014850;28;20570;-70
2021/03/23 08:18:29;;;;;;;25.70;16.67;;;;;;;6.34;72.22;97620.84;5013734;28;20163;-70
2021/03/23 08:20:54;;;;;;;26.43;17.27;;;;;;;6.23;72.60;97622.91;5014997;28;20254;-71
2021/03/23 08:23:37;;;;;;;25.57;16.30;;;;;;;6.04;73.73;97627.81;5012977;28;20422;-71
2021/03/23 08:26:14;;;;;;;26.43;16.43;;;;;;;6.54;72.18;97625.31;5013442;28;20167;-70
2021/03/23 08:28:49;;;;;;;22.70;15.97;;;;;;;6.70;71.28;97629.53;5013829;28;20250;-71
2021/03/23 08:31:31;;;;;;;27.47;17.13;;;;;;;6.76;70.74;97625.41;5013296;28;20182;-70
2021/03/23 08:34:24;;;;;;;26.53;17.13;;;;;;;6.08;73.07;97627.25;4996580;28;20566;-71
2021/03/23 08:37:23;;;;;;;28.07;17.57;;;;;;;6.06;72.84;97620.63;5013992;28;20182;-72
2021/03/23 08:39:51;;;;;;;27.10;16.70;;;;;;;6.26;72.00;97630.34;5013756;28;20183;-71
2021/03/23 08:42:17;;;;;;;27.87;17.37;;;;;;;6.99;71.02;97616.47;5013056;28;20171;-72
2021/03/23 08:45:00;;;;;;;26.10;16.47;;;;;;;7.56;69.21;97623.47;4996446;28;20199;-71
2021/03/23 08:47:26;;;;;;;24.13;14.47;;;;;;;7.95;66.88;97628.22;5013043;28;20625;-71
2021/03/23 08:49:53;;;;;;;22.57;15.23;;;;;;;8.26;65.80;97628.66;5013754;28;20186;-69
2021/03/23 08:52:31;;;;;;;22.20;14.97;;;;;;;8.46;64.85;97631.44;5013197;28;20270;-69
2021/03/23 08:54:58;;;;;;;23.60;15.50;;;;;;;8.25;65.77;97639.28;5013621;28;20247;-68
2021/03/23 08:57:24;;;;;;;24.63;15.30;;;;;;;7.55;67.43;97637.50;5013649;28;20179;-72
2021/03/23 08:59:51;;;;;;;22.07;13.93;;;;;;;7.82;65.60;97641.16;5014235;28;20182;-70
2021/03/23 09:02:20;;;;;;;22.57;13.73;;;;;;;7.68;66.83;97629.81;5013346;28;20202;-71
2021/03/23 09:04:55;;;;;;;21.23;13.10;;;;;;;7.64;65.41;97639.00;5014589;28;20271;-71
2021/03/23 09:07:25;;;;;;;15.13;10.47;;;;;;;7.56;63.84;97644.34;5013655;28;20222;-71
2021/03/23 09:09:53;;;;;;;15.20;10.77;;;;;;;7.54;64.16;97643.72;5014047;28;20183;-70
2021/03/23 09:12:34;;;;;;;18.27;12.13;;;;;;;7.23;65.75;97646.63;5013400;28;20168;-71
2021/03/23 09:15:09;;;;;;;19.27;11.93;;;;;;;7.28;65.95;97646.88;5014067;28;20218;-71
2021/03/23 09:18:13;;;;;;;18.77;13.20;;;;;;;7.96;63.99;97645.50;5014306;28;20175;-71
2021/03/23 09:20:38;;;;;;;22.97;15.43;;;;;;;7.48;66.38;97645.28;4978118;28;20191;-71
2021/03/23 09:23:16;;;;;;;18.10;12.33;;;;;;;7.49;65.39;97646.06;4995122;28;20218;-72
2021/03/23 09:25:49;;;;;;;21.17;12.37;;;;;;;6.82;66.91;97645.50;5013718;28;20700;-72
2021/03/23 09:28:29;;;;;;;18.63;12.53;;;;;;;7.05;66.75;97641.81;5012821;28;20494;-71
2021/03/23 09:31:17;;;;;;;18.67;11.87;;;;;;;7.36;64.52;97633.69;5013495;28;20187;-71
2021/03/23 09:33:51;;;;;;;17.07;10.50;;;;;;;7.23;64.89;97641.41;5013775;28;20172;-71
2021/03/23 09:36:20;;;;;;;16.07;9.83;;;;;;;7.12;62.93;97631.47;5013026;28;20567;-72
2021/03/23 09:38:50;;;;;;;16.47;10.77;;;;;;;7.22;64.41;97629.34;5013809;28;20167;-71
2021/03/23 09:41:21;;;;;;;16.60;10.83;;;;;;;7.35;64.38;97628.69;5012868;28;20206;-71
2021/03/23 09:43:52;;;;;;;13.77;10.03;;;;;;;7.72;63.12;97631.06;5013361;28;20602;-72
2021/03/23 09:46:48;;;;;;;17.77;10.67;;;;;;;7.92;62.57;97634.63;5012394;28;20176;-71
2021/03/23 09:49:36;;;;;;;15.03;9.03;;;;;;;8.11;60.77;97633.16;5012700;28;20171;-71
2021/03/23 09:52:01;;;;;;;16.30;9.80;;;;;;;7.99;59.46;97629.47;5013114;28;20179;-71
2021/03/23 09:54:30;;;;;;;14.67;9.40;;;;;;;7.98;59.68;97629.63;5011990;28;20249;-71
2021/03/23 09:57:01;;;;;;;20.40;9.83;;;;;;;8.01;60.21;97626.66;4995755;28;20526;-72
2021/03/23 09:59:31;;;;;;;13.97;9.53;;;;;;;8.09;59.70;97623.91;5012397;28;20221;-72
2021/03/23 10:02:04;;;;;;;10.87;7.77;;;;;;;7.97;58.02;97634.06;5012923;28;20181;-70
2021/03/23 10:04:39;;;;;;;10.43;7.70;;;;;;;8.23;57.63;97630.84;4995072;28;20195;-71
2021/03/23 10:07:07;;;;;;;12.20;8.10;;;;;;;8.38;57.38;97621.13;5012695;28;20171;-70
2021/03/23 10:09:37;;;;;;;14.93;9.27;;;;;;;8.15;58.75;97621.34;5012892;28;20194;-69
2021/03/23 10:12:04;;;;;;;13.03;9.07;;;;;;;8.09;58.89;97622.09;5012637;28;20176;-69
2021/03/23 10:14:39;;;;;;;12.90;8.87;;;;;;;7.74;59.92;97629.06;4995126;28;20186;-69
2021/03/23 10:17:27;;;;;;;13.03;8.73;;;;;;;7.96;58.75;97623.81;5012370;28;20174;-70
2021/03/23 10:19:55;;;;;;;14.90;9.00;;;;;;;7.55;59.70;97621.84;5012996;28;20210;-71
2021/03/23 10:22:31;;;;;;;14.13;8.93;;;;;;;7.58;59.28;97620.69;5011850;28;20196;-69
2021/03/23 10:24:59;;;;;;;13.60;7.80;;;;;;;7.18;60.11;97609.06;4994286;28;20183;-70
2021/03/23 10:27:29;;;;;;;12.37;8.40;;;;;;;7.56;60.26;97614.84;5005596;28;20432;-71
2021/03/23 10:30:05;;;;;;;13.50;8.70;;;;;;;7.74;59.39;97620.44;5011391;28;20499;-70
2021/03/23 10:32:52;;;;;;;16.83;9.17;;;;;;;7.83;58.50;97609.66;5010465;28;20171;-70
2021/03/23 10:35:17;;;;;;;11.33;8.00;;;;;;;8.22;57.78;97616.97;5009919;28;20691;-70
2021/03/23 10:37:44;;;;;;;12.63;8.30;;;;;;;8.61;56.99;97610.41;5011161;28;20190;-69
2021/03/23 10:40:30;;;;;;;9.30;7.53;;;;;;;8.74;56.36;97605.25;4993179;28;20239;-70
2021/03/23 10:42:55;;;;;;;13.90;8.50;;;;;;;8.61;56.66;97605.97;5012213;28;20253;-69
2021/03/23 10:45:24;;;;;;;11.43;7.40;;;;;;;8.00;57.66;97599.75;4993532;28;20183;-72
2021/03/23 10:48:04;;;;;;;16.20;7.57;;;;;;;7.29;59.41;97609.38;5011899;28;20214;-71
2021/03/23 10:50:32;;;;;;;14.23;7.60;;;;;;;7.22;60.36;97612.91;5011213;28;20190;-71
2021/03/23 10:53:13;;;;;;;11.37;8.40;;;;;;;7.75;59.03;97622.03;4993811;28;20194;-71
2021/03/23 10:55:42;;;;;;;11.23;7.93;;;;;;;8.14;57.96;97614.50;5012061;28;20218;-70
2021/03/23 10:58:21;;;;;;;11.70;7.83;;;;;;;8.37;56.98;97611.66;5001583;28;20189;-69
2021/03/23 11:00:49;;;;;;;12.43;7.43;;;;;;;8.41;56.86;97615.53;5011924;28;20537;-69
2021/03/23 11:03:33;;;;;;;12.97;7.70;;;;;;;8.47;56.38;97619.19;5010862;28;20202;-69
2021/03/23 11:06:00;;;;;;;12.57;7.60;;;;;;;8.57;56.25;97620.44;4992340;28;20619;-69
2021/03/23 11:08:26;;;;;;;10.90;7.30;;;;;;;8.70;55.70;97617.06;4999747;28;20330;-69
2021/03/23 11:10:56;;;;;;;11.47;7.03;;;;;;;8.81;55.19;97608.66;4994028;28;20182;-69
2021/03/23 11:13:22;;;;;;;8.03;6.40;;;;;;;8.66;54.99;97615.84;5010219;28;20193;-70
2021/03/23 11:15:49;;;;;;;7.27;5.50;;;;;;;8.34;53.84;97610.25;5011461;28;20571;-69
2021/03/23 11:18:21;;;;;;;6.97;4.80;;;;;;;8.31;54.00;97605.41;5010256;28;20263;-69
2021/03/23 11:20:47;;;;;;;10.60;7.10;;;;;;;8.37;56.52;97605.63;4996624;28;20682;-70
2021/03/23 11:23:43;;;;;;;12.30;7.03;;;;;;;8.55;56.68;97609.38;5010379;28;20199;-70
2021/03/23 11:26:21;;;;;;;14.20;7.37;;;;;;;8.76;55.58;97611.88;5000907;28;20180;-69
2021/03/23 11:28:47;;;;;;;10.90;6.80;;;;;;;8.13;55.61;97618.13;5010977;28;20163;-69
2021/03/23 11:31:15;;;;;;;9.60;7.50;;;;;;;8.19;56.10;97619.19;4993099;28;20186;-69
2021/03/23 11:33:41;;;;;;;12.10;7.20;;;;;;;7.93;56.16;97604.91;5011144;28;20660;-69
2021/03/23 11:36:07;;;;;;;10.87;6.70;;;;;;;7.83;55.99;97616.69;5010545;28;20186;-69
2021/03/23 11:38:33;;;;;;;10.80;7.00;;;;;;;7.73;56.36;97611.78;4992841;28;20270;-71
2021/03/23 11:41:02;;;;;;;8.70;6.53;;;;;;;7.89;55.62;97611.53;5011147;28;20185;-71
2021/03/23 11:43:40;;;;;;;8.57;6.17;;;;;;;8.06;55.07;97606.03;5010083;28;20744;-70
2021/03/23 11:46:14;;;;;;;9.20;6.50;;;;;;;7.84;55.32;97602.66;5011359;28;20196;-70
2021/03/23 11:48:43;;;;;;;8.17;6.43;;;;;;;8.12;55.53;97605.25;5014726;28;20537;-69